createdAt,value
2019-05-05T00:01:09.312Z,11.78
2019-05-05T00:03:56.519Z,13.05
2019-05-05T00:06:26.040Z,15.13
2019-05-05T00:08:55.635Z,14.38
2019-05-05T00:11:29.493Z,13.43
2019-05-05T00:14:06.633Z,13.72
2019-05-05T00:16:37.876Z,12.88
2019-05-05T00:19:07.401Z,10.20
2019-05-05T00:21:36.831Z,11.28
2019-05-05T00:24:06.383Z,13.70
2019-05-05T00:26:35.884Z,13.83
2019-05-05T00:29:05.347Z,14.00
2019-05-05T00:31:35.060Z,17.23
2019-05-05T00:34:05.270Z,16.00
2019-05-05T00:36:35.280Z,11.73
2019-05-05T00:39:07.463Z,13.70
2019-05-05T00:41:37.101Z,12.13
2019-05-05T00:44:06.701Z,13.38
2019-05-05T00:46:54.914Z,13.60
2019-05-05T00:49:27.064Z,17.40
2019-05-05T00:51:56.665Z,9.68
2019-05-05T00:54:26.139Z,12.75
2019-05-05T00:56:55.577Z,10.63
2019-05-05T00:59:26.684Z,14.20
2019-05-05T01:02:09.951Z,11.05
2019-05-05T01:04:41.126Z,17.70
2019-05-05T01:07:10.698Z,10.13
2019-05-05T01:09:41.865Z,13.13
2019-05-05T01:12:11.302Z,12.73
2019-05-05T01:14:40.767Z,12.35
2019-05-05T01:17:10.195Z,11.78
2019-05-05T01:19:39.653Z,13.75
2019-05-05T01:22:09.152Z,13.15
2019-05-05T01:24:38.689Z,13.95
2019-05-05T01:27:08.254Z,12.35
2019-05-05T01:29:37.721Z,12.58
2019-05-05T01:32:08.871Z,10.88
2019-05-05T01:34:44.393Z,13.35
2019-05-05T01:37:25.446Z,17.02
2019-05-05T01:39:56.713Z,13.13
2019-05-05T01:42:26.297Z,12.23
2019-05-05T01:44:55.766Z,17.02
2019-05-05T01:47:25.517Z,15.83
2019-05-05T01:49:55.058Z,14.65
2019-05-05T01:52:25.418Z,15.28
2019-05-05T01:54:55.009Z,14.90
2019-05-05T01:57:25.256Z,13.62
2019-05-05T01:59:55.421Z,19.73
2019-05-05T02:02:25.215Z,17.23
2019-05-05T02:04:55.381Z,19.32
2019-05-05T02:07:26.204Z,11.68
2019-05-05T02:09:55.751Z,18.77
2019-05-05T02:12:25.333Z,17.65
2019-05-05T02:14:55.218Z,16.40
2019-05-05T02:17:24.974Z,18.82
2019-05-05T02:19:55.345Z,19.52
2019-05-05T02:22:25.442Z,18.30
2019-05-05T02:24:56.042Z,22.15
2019-05-05T02:27:25.650Z,20.55
2019-05-05T02:29:56.879Z,24.57
2019-05-05T02:32:36.139Z,22.00
2019-05-05T02:35:08.698Z,19.62
2019-05-05T02:37:38.232Z,20.68
2019-05-05T02:40:09.978Z,20.15
2019-05-05T02:42:40.660Z,18.10
2019-05-05T02:48:14.869Z,24.20
2019-05-05T02:53:24.736Z,20.35
2019-05-05T02:55:57.916Z,20.95
2019-05-05T02:58:28.759Z,16.20
2019-05-05T03:01:00.749Z,17.25
2019-05-05T03:03:31.165Z,23.15
2019-05-05T03:06:00.688Z,24.45
2019-05-05T03:08:30.405Z,19.62
2019-05-05T03:11:01.294Z,21.15
2019-05-05T03:13:33.731Z,21.17
2019-05-05T03:16:20.826Z,26.60
2019-05-05T03:18:51.039Z,25.20
2019-05-05T03:21:21.520Z,26.57
2019-05-05T03:23:51.132Z,30.50
2019-05-05T03:26:20.913Z,21.17
2019-05-05T03:28:58.147Z,27.52
2019-05-05T03:31:27.735Z,23.60
2019-05-05T03:33:57.334Z,22.95
2019-05-05T03:36:30.489Z,26.33
2019-05-05T03:39:00.135Z,25.23
2019-05-05T03:41:35.518Z,25.00
2019-05-05T03:44:25.277Z,26.33
2019-05-05T03:46:55.266Z,25.95
2019-05-05T03:49:25.680Z,27.10
2019-05-05T03:51:55.263Z,27.55
2019-05-05T03:54:24.874Z,25.85
2019-05-05T03:57:10.054Z,30.82
2019-05-05T03:59:41.598Z,28.45
2019-05-05T04:02:14.183Z,28.77
2019-05-05T04:04:54.951Z,31.42
2019-05-05T04:07:25.774Z,31.55
2019-05-05T04:09:55.244Z,24.72
2019-05-05T04:12:25.462Z,31.75
2019-05-05T04:14:55.006Z,25.80
2019-05-05T04:17:44.162Z,31.07
2019-05-05T04:20:21.088Z,32.42
2019-05-05T04:22:50.527Z,25.80
2019-05-05T04:25:19.997Z,24.32
2019-05-05T04:27:49.450Z,31.17
2019-05-05T04:30:18.994Z,22.80
2019-05-05T04:32:48.500Z,28.27
2019-05-05T04:35:17.987Z,26.07
2019-05-05T04:37:47.421Z,27.80
2019-05-05T04:40:17.033Z,27.45
2019-05-05T04:42:46.559Z,28.60
2019-05-05T04:45:16.238Z,30.25
2019-05-05T04:47:50.029Z,25.97
2019-05-05T04:50:21.146Z,29.85
2019-05-05T04:52:54.085Z,28.77
2019-05-05T04:55:24.484Z,26.07
2019-05-05T04:57:54.162Z,26.10
2019-05-05T05:00:24.166Z,32.73
2019-05-05T05:02:58.302Z,24.52
2019-05-05T05:05:34.889Z,26.17
2019-05-05T05:08:04.402Z,25.62
2019-05-05T05:10:34.612Z,20.70
2019-05-05T05:13:04.713Z,23.35
2019-05-05T05:15:34.202Z,25.65
2019-05-05T05:18:05.294Z,21.75
2019-05-05T05:20:34.766Z,22.05
2019-05-05T05:23:04.232Z,25.82
2019-05-05T05:25:34.619Z,25.68
2019-05-05T05:28:04.387Z,23.70
2019-05-05T05:30:34.971Z,23.67
2019-05-05T05:33:04.975Z,25.92
2019-05-05T05:35:34.418Z,24.50
2019-05-05T05:38:04.668Z,22.65
2019-05-05T05:40:38.822Z,24.65
2019-05-05T05:43:09.943Z,24.00
2019-05-05T05:45:54.189Z,28.27
2019-05-05T05:48:25.466Z,18.82
2019-05-05T05:50:56.557Z,29.32
2019-05-05T05:53:26.026Z,21.33
2019-05-05T05:55:55.473Z,23.47
2019-05-05T05:58:24.944Z,19.62
2019-05-05T06:00:56.236Z,18.27
2019-05-05T06:03:25.712Z,24.37
2019-05-05T06:05:55.212Z,20.32
2019-05-05T06:08:24.689Z,18.75
2019-05-05T06:10:54.684Z,20.15
2019-05-05T06:13:24.355Z,18.85
2019-05-05T06:15:53.834Z,18.12
2019-05-05T06:18:24.334Z,21.87
2019-05-05T06:20:53.976Z,17.32
2019-05-05T06:23:24.024Z,20.15
2019-05-05T06:25:55.163Z,18.73
2019-05-05T06:28:24.796Z,18.80
2019-05-05T06:30:54.777Z,18.05
2019-05-05T06:33:24.339Z,16.73
2019-05-05T06:35:53.788Z,17.25
2019-05-05T06:38:24.126Z,15.85
2019-05-05T06:40:55.384Z,14.93
2019-05-05T06:43:26.494Z,16.65
2019-05-05T06:46:00.526Z,14.10
2019-05-05T06:48:29.998Z,19.00
2019-05-05T06:50:59.452Z,17.20
2019-05-05T06:53:28.932Z,16.05
2019-05-05T06:55:58.458Z,14.60
2019-05-05T06:58:28.002Z,16.37
2019-05-05T07:00:57.478Z,19.92
2019-05-05T07:03:26.921Z,14.13
2019-05-05T07:05:56.396Z,12.43
2019-05-05T07:08:25.919Z,13.40
2019-05-05T07:10:55.478Z,15.53
2019-05-05T07:13:24.931Z,15.35
2019-05-05T07:15:54.478Z,13.80
2019-05-05T07:18:24.659Z,13.15
2019-05-05T07:20:54.597Z,13.15
2019-05-05T07:23:24.609Z,12.93
2019-05-05T07:25:54.916Z,12.70
2019-05-05T07:28:25.805Z,12.45
2019-05-05T07:30:55.296Z,15.05
2019-05-05T07:33:24.730Z,11.85
2019-05-05T07:36:14.429Z,17.80
2019-05-05T07:38:44.304Z,13.75
2019-05-05T07:41:14.169Z,13.28
2019-05-05T07:43:43.802Z,15.93
2019-05-05T07:46:13.648Z,14.40
2019-05-05T07:48:44.222Z,14.33
2019-05-05T07:51:14.283Z,13.75
2019-05-05T07:53:44.352Z,13.38
2019-05-05T07:56:14.586Z,13.88
2019-05-05T07:58:44.064Z,15.30
2019-05-05T08:01:14.172Z,14.68
2019-05-05T08:03:44.547Z,10.72
2019-05-05T08:06:14.655Z,12.03
2019-05-05T08:08:44.530Z,13.95
2019-05-05T08:11:14.713Z,14.53
2019-05-05T08:13:44.488Z,11.48
2019-05-05T08:16:27.448Z,19.50
2019-05-05T08:19:01.205Z,14.35
2019-05-05T08:21:30.888Z,11.73
2019-05-05T08:24:01.975Z,11.80
2019-05-05T08:26:40.143Z,11.43
2019-05-05T08:32:06.732Z,18.00
2019-05-05T08:34:36.174Z,13.22
2019-05-05T08:37:05.710Z,12.03
2019-05-05T08:39:35.154Z,11.50
2019-05-05T08:42:04.771Z,12.70
2019-05-05T08:44:34.437Z,9.93
2019-05-05T08:47:04.561Z,9.78
2019-05-05T08:49:34.985Z,9.78
2019-05-05T08:52:04.594Z,10.80
2019-05-05T08:54:34.504Z,10.53
2019-05-05T08:57:04.361Z,9.30
2019-05-05T08:59:33.973Z,9.50
2019-05-05T09:02:04.485Z,10.38
2019-05-05T09:04:34.383Z,9.68
2019-05-05T09:07:05.026Z,8.43
2019-05-05T09:09:35.788Z,11.25
2019-05-05T09:12:05.389Z,8.90
2019-05-05T09:14:34.851Z,8.15
2019-05-05T09:17:04.605Z,9.45
2019-05-05T09:19:34.530Z,8.20
2019-05-05T09:22:06.697Z,13.62
2019-05-05T09:24:40.338Z,8.55
2019-05-05T09:27:24.832Z,7.12
2019-05-05T09:29:54.557Z,6.85
2019-05-05T09:32:24.355Z,7.95
2019-05-05T09:34:54.119Z,7.80
2019-05-05T09:37:24.665Z,8.25
2019-05-05T09:39:55.278Z,7.80
2019-05-05T09:42:24.717Z,7.58
2019-05-05T09:44:54.274Z,7.83
2019-05-05T09:47:24.666Z,7.90
2019-05-05T09:49:54.954Z,7.85
2019-05-05T09:52:24.609Z,7.97
2019-05-05T09:54:54.548Z,7.10
2019-05-05T09:57:24.088Z,9.50
2019-05-05T09:59:55.265Z,7.92
2019-05-05T10:02:24.776Z,9.58
2019-05-05T10:04:54.756Z,9.45
2019-05-05T10:07:25.418Z,7.05
2019-05-05T10:09:54.883Z,6.08
2019-05-05T10:12:24.335Z,5.75
2019-05-05T10:14:54.280Z,5.33
2019-05-05T10:17:24.393Z,7.75
2019-05-05T10:19:55.170Z,5.90
2019-05-05T10:22:24.616Z,5.97
2019-05-05T10:25:09.267Z,9.60
2019-05-05T10:27:44.883Z,6.90
2019-05-05T10:30:14.279Z,6.65
2019-05-05T10:32:43.935Z,10.43
2019-05-05T10:35:14.346Z,8.80
2019-05-05T10:37:44.010Z,11.22
2019-05-05T10:40:15.278Z,6.40
2019-05-05T10:42:50.904Z,6.87
2019-05-05T10:45:24.482Z,8.58
2019-05-05T10:47:54.234Z,8.63
2019-05-05T10:50:24.671Z,7.03
2019-05-05T10:52:55.314Z,10.10
2019-05-05T10:55:24.840Z,5.58
2019-05-05T10:57:54.569Z,9.40
2019-05-05T11:00:39.066Z,7.17
2019-05-05T11:03:08.684Z,6.42
2019-05-05T11:05:38.249Z,7.12
2019-05-05T11:08:07.832Z,7.40
2019-05-05T11:10:39.043Z,7.33
2019-05-05T11:13:08.691Z,7.15
2019-05-05T11:15:38.287Z,6.40
2019-05-05T11:18:07.908Z,5.87
2019-05-05T11:20:37.575Z,6.25
2019-05-05T11:23:07.159Z,7.05
2019-05-05T11:25:36.773Z,4.60
2019-05-05T11:28:07.951Z,4.90
2019-05-05T11:30:43.860Z,5.90
2019-05-05T11:33:27.226Z,6.00
2019-05-05T11:36:16.482Z,8.10
2019-05-05T11:38:46.094Z,6.10
2019-05-05T11:41:15.557Z,6.87
2019-05-05T11:43:45.071Z,7.08
2019-05-05T11:46:14.547Z,7.50
2019-05-05T11:48:44.102Z,5.45
2019-05-05T11:51:15.089Z,5.55
2019-05-05T11:53:44.976Z,7.53
2019-05-05T11:56:14.615Z,5.50
2019-05-05T11:58:59.672Z,4.75
2019-05-05T12:01:29.206Z,6.53
2019-05-05T12:03:58.656Z,4.42
2019-05-05T12:06:28.120Z,5.53
2019-05-05T12:08:58.948Z,4.80
2019-05-05T12:11:28.388Z,4.15
2019-05-05T12:13:58.495Z,7.42
2019-05-05T12:16:31.165Z,5.92
2019-05-05T12:19:02.248Z,6.55
2019-05-05T12:21:33.617Z,5.42
2019-05-05T12:24:04.480Z,5.33
2019-05-05T12:26:44.439Z,6.00
2019-05-05T12:29:14.147Z,6.28
2019-05-05T12:31:45.282Z,6.10
2019-05-05T12:34:14.806Z,9.40
2019-05-05T12:36:44.574Z,5.10
2019-05-05T12:39:14.325Z,6.00
2019-05-05T12:41:44.070Z,8.98
2019-05-05T12:44:15.166Z,6.60
2019-05-05T12:47:01.235Z,5.08
2019-05-05T12:49:33.710Z,4.72
2019-05-05T12:52:04.635Z,6.55
2019-05-05T12:54:34.191Z,4.72
2019-05-05T12:57:04.374Z,6.95
2019-05-05T12:59:34.066Z,6.37
2019-05-05T13:02:03.994Z,5.53
2019-05-05T13:04:33.938Z,7.62
2019-05-05T13:07:07.905Z,5.83
2019-05-05T13:09:34.821Z,6.30
2019-05-05T13:12:04.563Z,5.58
2019-05-05T13:14:34.187Z,7.70
2019-05-05T13:17:03.818Z,5.55
2019-05-05T13:19:34.977Z,5.50
2019-05-05T13:22:06.224Z,4.92
2019-05-05T13:24:46.351Z,4.55
2019-05-05T13:27:26.300Z,5.75
2019-05-05T13:29:55.802Z,5.62
2019-05-05T13:32:25.268Z,6.30
2019-05-05T13:34:55.788Z,7.97
2019-05-05T13:37:26.318Z,5.90
2019-05-05T13:39:55.758Z,7.90
2019-05-05T13:42:25.287Z,5.65
2019-05-05T13:45:03.809Z,8.08
2019-05-05T13:47:34.417Z,10.43
2019-05-05T13:50:11.364Z,8.23
2019-05-05T13:52:40.990Z,7.12
2019-05-05T13:55:10.665Z,8.25
2019-05-05T13:57:40.202Z,7.28
2019-05-05T14:00:14.941Z,8.63
2019-05-05T14:02:44.713Z,10.23
2019-05-05T14:05:14.467Z,10.03
2019-05-05T14:07:44.095Z,8.55
2019-05-05T14:10:14.461Z,12.65
2019-05-05T14:12:44.167Z,8.65
2019-05-05T14:15:17.079Z,6.20
2019-05-05T14:17:46.758Z,7.55
2019-05-05T14:20:17.397Z,7.35
2019-05-05T14:22:47.001Z,7.80
2019-05-05T14:25:18.366Z,7.42
2019-05-05T14:27:48.043Z,6.28
2019-05-05T14:30:34.113Z,5.72
2019-05-05T14:33:04.335Z,6.87
2019-05-05T14:35:44.210Z,5.85
2019-05-05T14:38:24.188Z,6.78
2019-05-05T14:40:53.836Z,7.50
2019-05-05T14:43:23.989Z,6.62
2019-05-05T14:45:54.649Z,6.17
2019-05-05T14:48:24.273Z,7.45
2019-05-05T14:50:54.370Z,6.08
2019-05-05T14:53:24.182Z,7.40
2019-05-05T14:55:53.810Z,5.00
2019-05-05T14:58:23.232Z,5.33
2019-05-05T15:00:52.669Z,5.95
2019-05-05T15:03:24.179Z,6.90
2019-05-05T15:05:57.556Z,5.70
2019-05-05T15:08:33.363Z,10.32
2019-05-05T15:11:04.020Z,8.48
2019-05-05T15:13:33.704Z,11.55
2019-05-05T15:16:04.009Z,21.23
2019-05-05T15:18:34.819Z,17.23
2019-05-05T15:21:04.462Z,15.88
2019-05-05T15:23:34.516Z,14.85
2019-05-05T15:26:04.557Z,8.93
2019-05-05T15:28:35.044Z,13.78
2019-05-05T15:31:04.622Z,10.80
2019-05-05T15:33:34.086Z,15.25
2019-05-05T15:36:04.404Z,10.53
2019-05-05T15:38:34.825Z,9.58
2019-05-05T15:41:04.677Z,9.50
2019-05-05T15:43:34.191Z,7.83
2019-05-05T15:46:04.466Z,11.10
2019-05-05T15:48:35.201Z,9.40
2019-05-05T15:51:04.726Z,13.40
2019-05-05T15:53:34.238Z,7.92
2019-05-05T15:56:04.503Z,8.08
2019-05-05T15:58:35.183Z,7.30
2019-05-05T16:01:04.845Z,5.97
2019-05-05T16:03:34.277Z,8.75
2019-05-05T16:06:03.904Z,8.88
2019-05-05T16:08:33.972Z,10.98
2019-05-05T16:11:03.916Z,7.53
2019-05-05T16:13:35.275Z,7.87
2019-05-05T16:16:18.189Z,8.73
2019-05-05T16:19:02.450Z,7.20
2019-05-05T16:21:23.591Z,8.03
2019-05-05T16:23:55.189Z,9.33
2019-05-05T16:26:24.693Z,7.67
2019-05-05T16:28:55.266Z,10.75
2019-05-05T16:31:27.438Z,8.13
2019-05-05T16:33:56.079Z,13.83
2019-05-05T16:36:25.542Z,11.38
2019-05-05T16:38:54.983Z,10.63
2019-05-05T16:41:24.446Z,9.73
2019-05-05T16:43:53.894Z,23.10
2019-05-05T16:46:23.940Z,19.05
2019-05-05T16:48:54.152Z,11.00
2019-05-05T16:51:25.357Z,11.50
2019-05-05T16:53:56.594Z,11.30
2019-05-05T16:56:26.309Z,10.48
2019-05-05T16:58:55.748Z,13.20
2019-05-05T17:01:25.281Z,12.55
2019-05-05T17:04:08.191Z,14.68
2019-05-05T17:06:26.023Z,12.03
2019-05-05T17:08:55.466Z,11.60
2019-05-05T17:11:24.938Z,10.75
2019-05-05T17:13:56.050Z,12.53
2019-05-05T17:16:34.999Z,13.88
2019-05-05T17:19:08.568Z,10.50
2019-05-05T17:21:53.393Z,11.08
2019-05-05T17:24:23.945Z,10.82
2019-05-05T17:26:54.914Z,12.90
2019-05-05T17:29:24.657Z,9.85
2019-05-05T17:31:54.216Z,10.75
2019-05-05T17:34:24.686Z,8.80
2019-05-05T17:36:56.281Z,10.58
2019-05-05T17:39:27.365Z,15.43
2019-05-05T17:41:58.539Z,14.68
2019-05-05T17:44:29.621Z,13.30
2019-05-05T17:47:00.734Z,17.52
2019-05-05T17:49:31.886Z,16.85
2019-05-05T17:52:03.669Z,22.25
2019-05-05T17:54:34.950Z,10.98
2019-05-05T17:57:04.565Z,15.15
2019-05-05T17:59:34.006Z,23.77
2019-05-05T18:02:04.799Z,20.43
2019-05-05T18:04:34.460Z,19.45
2019-05-05T18:07:05.744Z,27.60
2019-05-05T18:09:53.832Z,18.82
2019-05-05T18:12:40.429Z,38.90
2019-05-05T18:15:14.523Z,24.77
2019-05-05T18:17:44.053Z,29.57
2019-05-05T18:20:13.732Z,55.52
2019-05-05T18:22:43.502Z,27.37
2019-05-05T18:25:14.320Z,19.90
2019-05-05T18:27:43.784Z,54.23
2019-05-05T18:30:13.306Z,30.05
2019-05-05T18:32:42.764Z,26.93
2019-05-05T18:35:13.541Z,61.35
2019-05-05T18:37:43.629Z,38.40
2019-05-05T18:40:14.571Z,44.50
2019-05-05T18:42:44.643Z,68.65
2019-05-05T18:45:16.108Z,52.08
2019-05-05T18:47:45.578Z,47.60
2019-05-05T18:50:15.167Z,45.75
2019-05-05T18:52:47.165Z,54.58
2019-05-05T18:55:15.923Z,65.90
2019-05-05T18:57:45.479Z,56.25
2019-05-05T19:00:17.691Z,54.18
2019-05-05T19:02:48.828Z,47.85
2019-05-05T19:05:25.717Z,44.65
2019-05-05T19:08:05.812Z,37.63
2019-05-05T19:10:35.254Z,62.70
2019-05-05T19:13:04.798Z,58.55
2019-05-05T19:15:34.923Z,24.57
2019-05-05T19:18:06.548Z,28.45
2019-05-05T19:20:40.211Z,18.60
2019-05-05T19:23:09.819Z,23.62
2019-05-05T19:25:39.337Z,24.25
2019-05-05T19:28:08.889Z,16.30
2019-05-05T19:30:38.408Z,19.02
2019-05-05T19:33:08.086Z,21.35
2019-05-05T19:35:44.284Z,16.10
2019-05-05T19:38:08.779Z,19.35
2019-05-05T19:40:38.280Z,15.50
2019-05-05T19:43:07.793Z,16.77
2019-05-05T19:45:37.258Z,23.87
2019-05-05T19:48:06.703Z,17.85
2019-05-05T19:50:37.813Z,14.33
2019-05-05T19:53:08.978Z,14.55
2019-05-05T19:55:38.441Z,14.53
2019-05-05T19:58:07.904Z,13.25
2019-05-05T20:00:38.601Z,13.25
2019-05-05T20:03:08.290Z,16.82
2019-05-05T20:05:37.763Z,16.37
2019-05-05T20:08:07.238Z,15.38
2019-05-05T20:10:36.705Z,16.02
2019-05-05T20:13:06.173Z,16.70
2019-05-05T20:15:44.262Z,13.03
2019-05-05T20:18:14.263Z,11.80
2019-05-05T20:20:44.517Z,13.53
2019-05-05T20:23:14.078Z,12.45
2019-05-05T20:25:44.828Z,11.95
2019-05-05T20:28:14.576Z,21.60
2019-05-05T20:30:44.019Z,10.15
2019-05-05T20:33:20.892Z,11.75
2019-05-05T20:35:55.004Z,9.68
2019-05-05T20:38:28.807Z,10.50
2019-05-05T20:41:13.946Z,11.22
2019-05-05T20:43:44.787Z,10.80
2019-05-05T20:46:14.197Z,10.85
2019-05-05T20:48:44.873Z,13.93
2019-05-05T20:51:14.618Z,12.05
2019-05-05T20:53:45.903Z,11.12
2019-05-05T20:56:15.459Z,15.05
2019-05-05T20:58:44.972Z,21.87
2019-05-05T21:01:14.437Z,13.83
2019-05-05T21:03:43.943Z,14.78
2019-05-05T21:06:13.987Z,19.23
2019-05-05T21:08:44.113Z,27.37
2019-05-05T21:11:14.269Z,41.75
2019-05-05T21:13:45.203Z,22.70
2019-05-05T21:16:14.838Z,28.45
2019-05-05T21:18:44.349Z,25.80
2019-05-05T21:21:15.456Z,34.45
2019-05-05T21:23:55.566Z,29.98
2019-05-05T21:26:26.770Z,28.75
2019-05-05T21:28:56.234Z,27.73
2019-05-05T21:31:25.697Z,30.92
2019-05-05T21:33:55.141Z,25.02
2019-05-05T21:36:24.616Z,22.50
2019-05-05T21:38:54.763Z,22.48
2019-05-05T21:41:24.646Z,23.22
2019-05-05T21:43:54.232Z,22.77
2019-05-05T21:46:24.143Z,20.32
2019-05-05T21:48:54.314Z,23.02
2019-05-05T21:51:40.958Z,27.60
2019-05-05T21:54:28.579Z,32.95
2019-05-05T21:59:55.265Z,19.80
2019-05-05T22:02:16.098Z,27.15
2019-05-05T22:04:45.682Z,21.97
2019-05-05T22:07:15.221Z,18.32
2019-05-05T22:09:44.722Z,20.02
2019-05-05T22:12:14.334Z,18.62
2019-05-05T22:14:44.076Z,19.35
2019-05-05T22:17:14.623Z,17.23
2019-05-05T22:19:45.828Z,18.05
2019-05-05T22:22:16.934Z,18.35
2019-05-05T22:24:46.386Z,17.37
2019-05-05T22:27:15.858Z,17.25
2019-05-05T22:29:45.310Z,15.00
2019-05-05T22:32:14.821Z,15.18
2019-05-05T22:34:44.485Z,15.45
2019-05-05T22:37:14.348Z,16.45
2019-05-05T22:39:44.525Z,16.48
2019-05-05T22:42:15.797Z,19.17
2019-05-05T22:44:45.332Z,19.48
2019-05-05T22:47:14.795Z,17.25
2019-05-05T22:49:44.470Z,16.07
2019-05-05T22:52:14.534Z,20.80
2019-05-05T22:54:44.383Z,20.85
2019-05-05T22:57:14.154Z,26.25
2019-05-05T22:59:43.583Z,21.33
2019-05-05T23:02:14.952Z,28.67
2019-05-05T23:04:55.046Z,24.70
2019-05-05T23:07:26.217Z,23.05
2019-05-05T23:09:55.666Z,22.27
2019-05-05T23:12:25.132Z,27.10
2019-05-05T23:14:54.735Z,29.50
2019-05-05T23:17:28.863Z,39.30
2019-05-05T23:20:16.416Z,32.93
2019-05-05T23:25:17.773Z,30.12
2019-05-05T23:27:47.986Z,39.50
2019-05-05T23:30:23.557Z,46.80
2019-05-05T23:32:54.638Z,54.30
2019-05-05T23:35:24.011Z,52.33
2019-05-05T23:37:55.284Z,38.15
2019-05-05T23:40:26.737Z,45.33
2019-05-05T23:42:56.206Z,42.03
2019-05-05T23:45:25.656Z,34.15
2019-05-05T23:47:55.682Z,33.98
2019-05-05T23:50:25.140Z,37.15
2019-05-05T23:52:54.868Z,35.35
2019-05-05T23:55:24.408Z,25.20
2019-05-05T23:57:54.786Z,32.10
